Aérodrome :
LOGIN :

S'inscrire | Disclaimer

   EN    FR    IT 

 










Légende :    VFR   VFR Marginal   IFR   IFR Intensif   IFR Très Intensif
Visi : 
Plafond : 
>= 8 km
>= 3000ft
5 à 8 km
1000 à 3000 ft
1500m à 5 km
500 à 1000 ft
800 à 1500m
200 à 500 ft
< 800m
< 200 ft
Symboles :   Orages  Brouillard  Fortes neiges  Fortes précipitations  Vent > 20 kt
SIGMETs :   Divers  Orages  Givrage  Turbulence  Onde Orograph.  Cendres Volcan.







- Altitude de l'aérodrome : 200 ft


EBBL - Klein Brogel AB

DERNIER METAR :
  • 260455Z AUTO 21008KT 9999 FEW058/// SCT073/// 07/02 Q1011 BLU

METARs EXPIRÉS :
  • 260425Z AUTO 21008KT 9999 BKN075/// BKN160/// 07/02 Q1012 BLU
  • 260355Z AUTO 21009KT 9999 BKN087/// 07/02 Q1012 BLU
  • 260325Z AUTO 21010KT 9999 FEW067/// BKN084/// OVC190/// 07/01 Q1012 BLU
  • 260255Z AUTO 21009KT 9999 BKN081/// BKN190/// 07/01 Q1012 BLU
  • 260225Z AUTO 22009KT 9999 OVC077/// 07/01 Q1013 BLU

Prévision TAF périmée.
Pas de NOTAMs connus pour ce terrain.



MET'MAP, la Météo Aéronautique d'un coup d'oeil ! - Copyright ORBIFLY Décembre 2007 - Disclaimer

ORBIFLY MET'MAP TEAM :

Programmation & Développement : Alexandra Zaïnal
Conception & Développement : Baudouin d'Aumeries
Co-Programmation & Développement : Marc-Olivier Méhu
Soutien technique & logistique : Manuel Goepfert

Contact : metmap@orbifly.com




SOURCES & CREDITS :

   NOAA